createdAt,value
2019-03-30T00:03:58.009Z,9.76
2019-03-30T00:09:01.592Z,9.53
2019-03-30T00:14:05.040Z,9.46
2019-03-30T00:19:08.479Z,9.33
2019-03-30T00:24:11.949Z,9.35
2019-03-30T00:29:15.379Z,9.32
2019-03-30T00:34:18.811Z,9.13
2019-03-30T00:39:22.239Z,9.13
2019-03-30T00:44:25.686Z,8.99
2019-03-30T00:49:29.145Z,8.95
2019-03-30T00:54:32.611Z,8.94
2019-03-30T00:59:36.066Z,8.87
2019-03-30T01:04:39.514Z,8.89
2019-03-30T01:09:42.975Z,8.81
2019-03-30T01:14:46.404Z,8.67
2019-03-30T01:20:02.406Z,8.65
2019-03-30T01:24:54.994Z,8.63
2019-03-30T01:29:58.461Z,8.56
2019-03-30T01:35:01.942Z,8.50
2019-03-30T01:40:08.292Z,8.38
2019-03-30T01:45:12.602Z,8.33
2019-03-30T01:50:17.742Z,8.26
2019-03-30T01:55:21.325Z,8.25
2019-03-30T02:00:25.449Z,8.18
2019-03-30T02:05:28.883Z,8.19
2019-03-30T02:10:38.421Z,8.16
2019-03-30T02:15:41.914Z,8.01
2019-03-30T02:20:47.078Z,7.92
2019-03-30T02:25:50.486Z,7.95
2019-03-30T02:30:53.921Z,7.91
2019-03-30T02:35:57.384Z,7.91
2019-03-30T02:41:00.809Z,7.95
2019-03-30T02:46:04.350Z,7.87
2019-03-30T02:51:07.744Z,7.85
2019-03-30T02:56:11.165Z,7.65
2019-03-30T03:01:14.604Z,7.59
2019-03-30T03:06:18.012Z,7.65
2019-03-30T03:11:21.435Z,7.64
2019-03-30T03:16:27.541Z,7.48
2019-03-30T03:21:30.708Z,7.42
2019-03-30T03:26:34.192Z,7.37
2019-03-30T03:31:37.650Z,7.35
2019-03-30T03:36:41.077Z,7.21
2019-03-30T03:41:44.511Z,7.10
2019-03-30T03:46:47.947Z,7.10
2019-03-30T03:51:51.373Z,7.12
2019-03-30T03:56:56.052Z,7.08
2019-03-30T04:02:02.179Z,7.05
2019-03-30T04:07:05.742Z,6.90
2019-03-30T04:12:10.937Z,7.00
2019-03-30T04:17:14.424Z,6.87
2019-03-30T04:22:17.838Z,6.84
2019-03-30T04:27:21.272Z,6.78
2019-03-30T04:32:24.708Z,6.74
2019-03-30T04:37:28.765Z,6.69
2019-03-30T04:42:32.133Z,6.70
2019-03-30T04:47:35.571Z,6.67
2019-03-30T04:52:39.016Z,6.63
2019-03-30T04:57:42.447Z,6.58
2019-03-30T05:02:45.859Z,6.52
2019-03-30T05:07:49.578Z,6.48
2019-03-30T05:12:53.013Z,6.47
2019-03-30T05:17:56.426Z,6.42
2019-03-30T05:22:59.856Z,6.41
2019-03-30T05:28:03.286Z,6.48
2019-03-30T05:33:06.778Z,6.48
2019-03-30T05:38:10.231Z,6.54
2019-03-30T05:43:13.664Z,6.55
2019-03-30T05:48:17.095Z,6.54
2019-03-30T05:53:20.540Z,6.57
2019-03-30T05:58:24.009Z,6.59
2019-03-30T06:03:27.422Z,6.70
2019-03-30T06:08:30.943Z,6.64
2019-03-30T06:13:34.370Z,6.65
2019-03-30T06:18:37.796Z,6.77
2019-03-30T06:23:41.297Z,6.90
2019-03-30T06:28:44.748Z,7.01
2019-03-30T06:33:48.165Z,7.09
2019-03-30T06:38:51.578Z,7.26
2019-03-30T06:43:55.011Z,7.37
2019-03-30T06:48:58.435Z,7.50
2019-03-30T06:54:01.847Z,7.65
2019-03-30T06:59:05.263Z,7.78
2019-03-30T07:04:11.259Z,8.01
2019-03-30T07:09:14.516Z,8.25
2019-03-30T07:14:18.298Z,8.49
2019-03-30T07:19:24.008Z,8.66
2019-03-30T07:24:27.426Z,8.90
2019-03-30T07:29:30.863Z,9.25
2019-03-30T07:34:34.292Z,9.52
2019-03-30T07:39:37.806Z,9.76
2019-03-30T07:44:41.523Z,10.20
2019-03-30T07:49:44.959Z,10.52
2019-03-30T07:54:48.448Z,10.97
2019-03-30T07:59:51.841Z,11.27
2019-03-30T08:04:55.275Z,11.71
2019-03-30T08:09:58.701Z,12.27
2019-03-30T08:15:02.124Z,12.66
2019-03-30T08:20:07.819Z,13.13
2019-03-30T08:25:11.374Z,13.44
2019-03-30T08:30:15.976Z,13.84
2019-03-30T08:35:19.387Z,14.11
2019-03-30T08:40:22.827Z,14.61
2019-03-30T08:45:26.999Z,15.08
2019-03-30T08:50:30.384Z,15.57
2019-03-30T08:55:33.825Z,15.98
2019-03-30T09:00:39.194Z,16.29
2019-03-30T09:05:42.617Z,16.79
2019-03-30T09:10:46.043Z,17.20
2019-03-30T09:15:49.545Z,17.47
2019-03-30T09:20:52.973Z,18.03
2019-03-30T09:25:56.388Z,18.16
2019-03-30T09:30:59.829Z,18.22
2019-03-30T09:36:03.323Z,18.42
2019-03-30T09:41:06.781Z,18.82
2019-03-30T09:46:10.258Z,19.30
2019-03-30T09:51:13.726Z,19.42
2019-03-30T09:56:17.161Z,19.71
2019-03-30T10:01:20.604Z,20.11
2019-03-30T10:06:33.815Z,20.62
2019-03-30T10:11:29.193Z,20.98
2019-03-30T10:16:32.634Z,21.09
2019-03-30T10:21:36.127Z,21.35
2019-03-30T10:26:39.571Z,22.04
2019-03-30T10:31:42.992Z,22.04
2019-03-30T10:36:46.437Z,22.33
2019-03-30T10:41:49.869Z,22.64
2019-03-30T10:46:53.304Z,23.04
2019-03-30T10:51:56.720Z,22.98
2019-03-30T10:57:00.141Z,23.23
2019-03-30T11:02:03.584Z,23.54
2019-03-30T11:07:07.035Z,23.47
2019-03-30T11:12:10.758Z,23.63
2019-03-30T11:17:14.179Z,23.84
2019-03-30T11:22:18.396Z,24.10
2019-03-30T11:27:21.818Z,24.46
2019-03-30T11:32:25.235Z,24.81
2019-03-30T11:37:28.702Z,24.27
2019-03-30T11:42:32.131Z,24.10
2019-03-30T11:47:35.553Z,24.23
2019-03-30T11:52:38.976Z,24.75
2019-03-30T11:57:42.464Z,23.58
2019-03-30T12:02:46.076Z,23.41
2019-03-30T12:07:49.509Z,23.41
2019-03-30T12:12:53.030Z,23.57
2019-03-30T12:17:56.440Z,24.37
2019-03-30T12:22:59.863Z,24.79
2019-03-30T12:28:03.278Z,24.95
2019-03-30T12:33:06.747Z,25.07
2019-03-30T12:38:10.170Z,25.04
2019-03-30T12:43:13.684Z,24.90
2019-03-30T12:48:17.235Z,24.83
2019-03-30T12:53:20.699Z,25.71
2019-03-30T12:58:24.142Z,26.10
2019-03-30T13:03:29.105Z,25.97
2019-03-30T13:08:32.543Z,25.55
2019-03-30T13:13:37.060Z,25.65
2019-03-30T13:18:40.530Z,26.00
2019-03-30T13:23:43.977Z,25.84
2019-03-30T13:28:47.427Z,25.94
2019-03-30T13:33:50.849Z,25.90
2019-03-30T13:38:54.295Z,25.60
2019-03-30T13:43:57.710Z,26.51
2019-03-30T13:49:01.146Z,26.12
2019-03-30T13:54:04.707Z,25.30
2019-03-30T13:59:08.127Z,24.60
2019-03-30T14:04:11.561Z,24.55
2019-03-30T14:09:14.991Z,25.28
2019-03-30T14:14:18.559Z,24.87
2019-03-30T14:19:21.958Z,24.81
2019-03-30T14:24:25.387Z,24.13
2019-03-30T14:29:29.719Z,23.24
2019-03-30T14:34:33.240Z,22.36
2019-03-30T14:39:36.671Z,22.52
2019-03-30T14:44:40.096Z,22.24
2019-03-30T14:49:43.607Z,21.64
2019-03-30T14:54:53.122Z,21.62
2019-03-30T14:59:52.202Z,22.52
2019-03-30T15:04:55.679Z,23.19
2019-03-30T15:09:59.131Z,22.75
2019-03-30T15:15:02.652Z,22.92
2019-03-30T15:20:10.292Z,22.51
2019-03-30T15:25:13.729Z,22.46
2019-03-30T15:30:17.863Z,22.03
2019-03-30T15:35:21.446Z,22.03
2019-03-30T15:40:25.046Z,22.19
2019-03-30T15:45:28.692Z,21.69
2019-03-30T15:50:32.139Z,21.67
2019-03-30T15:55:38.166Z,21.67
2019-03-30T16:00:42.947Z,20.66
2019-03-30T16:05:47.431Z,20.66
2019-03-30T16:10:52.463Z,20.64
2019-03-30T16:15:56.074Z,20.91
2019-03-30T16:20:59.594Z,20.95
2019-03-30T16:26:03.045Z,20.36
2019-03-30T16:31:06.453Z,20.36
2019-03-30T16:36:09.878Z,20.34
2019-03-30T16:41:13.325Z,20.40
2019-03-30T16:46:19.260Z,20.22
2019-03-30T16:51:22.695Z,20.11
2019-03-30T16:56:26.128Z,19.83
2019-03-30T17:01:29.635Z,19.46
2019-03-30T17:06:33.059Z,19.26
2019-03-30T17:11:36.512Z,19.32
2019-03-30T17:16:39.945Z,19.15
2019-03-30T17:21:43.356Z,18.98
2019-03-30T17:26:46.864Z,18.86
2019-03-30T17:31:50.320Z,18.61
2019-03-30T17:36:54.807Z,18.42
2019-03-30T17:41:58.331Z,18.16
2019-03-30T17:47:01.765Z,17.86
2019-03-30T17:52:05.211Z,17.65
2019-03-30T17:57:08.639Z,17.28
2019-03-30T18:02:12.165Z,16.91
2019-03-30T18:07:15.646Z,16.49
2019-03-30T18:12:20.572Z,16.14
2019-03-30T18:17:24.230Z,15.78
2019-03-30T18:22:27.717Z,15.54
2019-03-30T18:27:31.098Z,15.34
2019-03-30T18:32:35.047Z,15.11
2019-03-30T18:37:39.575Z,14.88
2019-03-30T18:42:43.292Z,14.70
2019-03-30T18:47:46.851Z,14.67
2019-03-30T18:52:50.863Z,14.34
2019-03-30T18:57:54.453Z,14.58
2019-03-30T19:02:58.078Z,14.22
2019-03-30T19:08:02.636Z,13.97
2019-03-30T19:13:06.072Z,13.69
2019-03-30T19:18:09.482Z,13.44
2019-03-30T19:23:12.918Z,13.17
2019-03-30T19:28:16.372Z,13.10
2019-03-30T19:33:19.823Z,12.95
2019-03-30T19:38:23.258Z,12.91
2019-03-30T19:43:26.800Z,12.72
2019-03-30T19:48:30.480Z,12.64
2019-03-30T19:53:34.121Z,12.53
2019-03-30T19:58:37.543Z,12.46
2019-03-30T20:03:40.996Z,12.37
2019-03-30T20:08:44.510Z,12.20
2019-03-30T20:13:48.118Z,12.11
2019-03-30T20:18:51.577Z,12.08
2019-03-30T20:23:55.076Z,11.94
2019-03-30T20:28:58.526Z,11.81
2019-03-30T20:34:02.049Z,11.71
2019-03-30T20:39:08.421Z,11.68
2019-03-30T20:44:11.868Z,11.73
2019-03-30T20:49:15.370Z,11.70
2019-03-30T20:54:18.804Z,11.73
2019-03-30T20:59:22.296Z,11.74
2019-03-30T21:04:25.871Z,11.76
2019-03-30T21:09:29.317Z,11.70
2019-03-30T21:14:32.792Z,11.63
2019-03-30T21:19:36.705Z,11.61
2019-03-30T21:24:40.162Z,11.55
2019-03-30T21:29:54.601Z,11.58
2019-03-30T21:34:48.760Z,11.63
2019-03-30T21:39:52.268Z,11.64
2019-03-30T21:44:55.691Z,11.45
2019-03-30T21:49:59.115Z,11.47
2019-03-30T21:55:02.553Z,11.48
2019-03-30T22:00:11.128Z,11.40
2019-03-30T22:05:14.543Z,11.25
2019-03-30T22:10:21.027Z,11.07
2019-03-30T22:15:26.752Z,10.96
2019-03-30T22:20:30.203Z,10.96
2019-03-30T22:25:33.620Z,10.82
2019-03-30T22:30:37.041Z,10.62
2019-03-30T22:35:40.511Z,10.70
2019-03-30T22:40:43.903Z,10.61
2019-03-30T22:45:47.402Z,10.49
2019-03-30T22:50:50.825Z,10.33
2019-03-30T22:55:54.945Z,10.23
2019-03-30T23:01:02.707Z,10.08
2019-03-30T23:06:06.231Z,10.03
2019-03-30T23:11:09.661Z,10.01
2019-03-30T23:16:13.075Z,10.03
2019-03-30T23:21:16.512Z,9.92
2019-03-30T23:26:19.936Z,9.95
2019-03-30T23:31:23.376Z,10.02
2019-03-30T23:36:26.826Z,9.82
2019-03-30T23:41:30.282Z,9.77
2019-03-30T23:46:33.707Z,9.86
2019-03-30T23:51:37.119Z,9.83
2019-03-30T23:56:40.588Z,9.77
